Terminal Aerodrome Forecast
Issued by NWS

Home | Current Version | Previous Version | Text Only | Print | Product List | Glossary On
Versions: 1 2 3 4 5 6 7 8 9 10 11 12 13 14
000
FTAK31 PAJN 311142
TAFAGY
TAF
PAGY 311142Z 3112/0112 00000KT P6SM -SHRA SCT007 BKN025 OVC050
      TEMPO 3112/3116 5SM -SHRA BKN007 OVC025
     FM311800 VRB04KT P6SM -SHRA SCT025 BKN040 OVC060
     FM312100 04003KT P6SM VCSH BKN040 OVC060
     FM010300 04012KT P6SM SCT040 BKN060
      AMD LTD TO CLD VIS AND WIND=

USA.gov is the U.S. government's official web portal to all federal, state and local government web resources and services.